createdAt,value
2023-03-24T00:00:30.031Z,10.93
2023-03-24T00:03:01.382Z,9.70
2023-03-24T00:05:28.651Z,10.15
2023-03-24T00:07:55.487Z,11.18
2023-03-24T00:10:23.222Z,11.00
2023-03-24T00:12:50.997Z,13.82
2023-03-24T00:15:21.009Z,9.00
2023-03-24T00:17:50.491Z,9.68
2023-03-24T00:20:20.439Z,10.80
2023-03-24T00:22:50.946Z,8.60
2023-03-24T00:25:20.232Z,7.20
2023-03-24T00:27:48.845Z,9.70
2023-03-24T00:30:17.640Z,9.30
2023-03-24T00:32:46.171Z,9.98
2023-03-24T00:35:16.286Z,9.20
2023-03-24T00:37:44.641Z,9.00
2023-03-24T00:40:16.367Z,8.05
2023-03-24T00:45:16.099Z,8.65
2023-03-24T00:47:44.878Z,9.38
2023-03-24T00:50:17.634Z,7.38
2023-03-24T00:52:48.215Z,8.30
2023-03-24T00:55:16.322Z,8.55
2023-03-24T00:57:50.369Z,7.60
2023-03-24T01:00:24.102Z,9.32
2023-03-24T01:02:55.280Z,11.40
2023-03-24T01:05:30.307Z,7.73
2023-03-24T01:07:59.445Z,9.02
2023-03-24T01:10:30.186Z,7.63
2023-03-24T01:12:59.727Z,7.77
2023-03-24T01:15:33.558Z,9.52
2023-03-24T01:18:02.597Z,9.25
2023-03-24T01:20:33.727Z,8.02
2023-03-24T01:23:01.863Z,5.90
2023-03-24T01:25:30.416Z,7.32
2023-03-24T01:27:57.367Z,6.22
2023-03-24T01:30:26.251Z,9.05
2023-03-24T01:32:53.415Z,7.43
2023-03-24T01:35:21.984Z,5.82
2023-03-24T01:37:49.432Z,9.35
2023-03-24T01:40:23.425Z,6.45
2023-03-24T01:42:51.680Z,7.47
2023-03-24T01:45:40.478Z,6.07
2023-03-24T01:48:16.426Z,12.93
2023-03-24T01:50:48.018Z,8.75
2023-03-24T01:53:15.444Z,8.18
2023-03-24T01:55:45.430Z,12.68
2023-03-24T01:58:12.729Z,9.90
2023-03-24T02:00:39.708Z,12.25
2023-03-24T02:03:14.868Z,19.05
2023-03-24T02:05:45.188Z,12.82
2023-03-24T02:08:31.135Z,12.80
2023-03-24T02:10:59.103Z,15.40
2023-03-24T02:13:25.867Z,20.10
2023-03-24T02:16:03.612Z,13.05
2023-03-24T02:19:00.414Z,16.63
2023-03-24T02:21:44.832Z,11.65
2023-03-24T02:24:34.918Z,11.38
2023-03-24T02:27:10.713Z,14.65
2023-03-24T02:30:18.504Z,16.30
2023-03-24T02:33:29.543Z,17.20
2023-03-24T02:36:27.135Z,15.45
2023-03-24T02:39:14.229Z,22.10
2023-03-24T02:41:55.330Z,19.23
2023-03-24T02:44:42.771Z,16.52
2023-03-24T02:47:09.521Z,17.23
2023-03-24T02:49:58.899Z,15.48
2023-03-24T02:53:00.481Z,15.45
2023-03-24T02:55:33.001Z,24.63
2023-03-24T02:58:07.406Z,26.67
2023-03-24T03:00:59.339Z,17.60
2023-03-24T03:06:19.955Z,16.52
2023-03-24T03:08:47.950Z,15.00
2023-03-24T03:11:17.451Z,18.23
2023-03-24T03:13:56.464Z,17.38
2023-03-24T03:16:34.490Z,21.92
2023-03-24T03:19:06.042Z,15.55
2023-03-24T03:21:39.217Z,19.08
2023-03-24T03:24:15.441Z,19.65
2023-03-24T03:26:44.558Z,18.08
2023-03-24T03:29:22.096Z,19.02
2023-03-24T03:32:00.989Z,19.67
2023-03-24T03:34:57.036Z,17.67
2023-03-24T03:37:36.812Z,24.13
2023-03-24T03:40:12.551Z,22.08
2023-03-24T03:42:40.218Z,27.85
2023-03-24T03:45:10.246Z,22.33
2023-03-24T03:47:37.472Z,27.05
2023-03-24T03:50:07.408Z,22.75
2023-03-24T03:52:35.035Z,23.02
2023-03-24T03:55:03.437Z,26.25
2023-03-24T03:57:30.861Z,19.42
2023-03-24T03:59:58.819Z,21.63
2023-03-24T04:02:34.756Z,24.08
2023-03-24T04:05:06.746Z,25.45
2023-03-24T04:08:03.917Z,15.20
2023-03-24T04:10:40.231Z,31.40
2023-03-24T04:13:17.627Z,26.50
2023-03-24T04:16:17.973Z,27.25
2023-03-24T04:18:54.913Z,36.08
2023-03-24T04:21:53.982Z,26.73
2023-03-24T04:24:54.689Z,29.42
2023-03-24T04:27:27.289Z,30.90
2023-03-24T04:30:18.915Z,32.42
2023-03-24T04:32:47.536Z,38.13
2023-03-24T04:35:31.813Z,26.02
2023-03-24T04:38:10.710Z,34.03
2023-03-24T04:40:42.254Z,31.63
2023-03-24T04:45:37.374Z,28.30
2023-03-24T04:48:09.218Z,39.45
2023-03-24T04:50:37.369Z,38.17
2023-03-24T04:53:06.165Z,34.30
2023-03-24T04:55:51.170Z,28.27
2023-03-24T04:58:19.705Z,35.85
2023-03-24T05:00:46.950Z,33.65
2023-03-24T05:03:15.525Z,29.27
2023-03-24T05:05:44.071Z,35.38
2023-03-24T05:08:11.296Z,35.00
2023-03-24T05:10:38.098Z,31.55
2023-03-24T05:13:06.900Z,27.63
2023-03-24T05:15:34.236Z,29.67
2023-03-24T05:18:01.299Z,22.67
2023-03-24T05:20:28.240Z,30.40
2023-03-24T05:22:54.969Z,28.27
2023-03-24T05:25:23.211Z,29.33
2023-03-24T05:27:50.008Z,27.42
2023-03-24T05:30:17.469Z,22.50
2023-03-24T05:32:46.136Z,33.10
2023-03-24T05:35:14.343Z,27.77
2023-03-24T05:37:41.321Z,33.30
2023-03-24T05:40:08.706Z,24.70
2023-03-24T05:42:35.504Z,22.73
2023-03-24T05:45:02.409Z,30.38
2023-03-24T05:47:29.264Z,24.13
2023-03-24T05:49:56.017Z,34.05
2023-03-24T05:52:22.872Z,31.65
2023-03-24T05:54:52.221Z,35.53
2023-03-24T05:57:20.527Z,20.27
2023-03-24T05:59:47.728Z,33.75
2023-03-24T06:02:14.696Z,29.88
2023-03-24T06:04:46.380Z,20.98
2023-03-24T06:07:13.538Z,31.30
2023-03-24T06:09:42.574Z,32.25
2023-03-24T06:12:10.282Z,34.33
2023-03-24T06:14:37.142Z,31.27
2023-03-24T06:17:03.901Z,27.67
2023-03-24T06:19:32.878Z,30.55
2023-03-24T06:22:02.910Z,26.73
2023-03-24T06:24:30.280Z,26.20
2023-03-24T06:26:59.161Z,30.77
2023-03-24T06:29:26.096Z,32.60
2023-03-24T06:31:52.854Z,24.85
2023-03-24T06:34:19.605Z,32.92
2023-03-24T06:36:46.291Z,34.90
2023-03-24T06:39:13.087Z,25.55
2023-03-24T06:41:40.024Z,32.15
2023-03-24T06:44:06.808Z,36.08
2023-03-24T06:46:33.542Z,29.33
2023-03-24T06:49:00.528Z,33.72
2023-03-24T06:51:27.334Z,29.00
2023-03-24T06:53:54.065Z,28.77
2023-03-24T06:56:21.590Z,27.77
2023-03-24T06:58:49.819Z,32.80
2023-03-24T07:01:16.590Z,29.13
2023-03-24T07:03:43.767Z,32.70
2023-03-24T07:06:10.614Z,25.40
2023-03-24T07:08:38.836Z,31.17
2023-03-24T07:11:07.546Z,23.42
2023-03-24T07:13:34.446Z,25.83
2023-03-24T07:16:01.227Z,23.70
2023-03-24T07:18:28.194Z,30.48
2023-03-24T07:20:54.904Z,26.90
2023-03-24T07:23:21.650Z,25.45
2023-03-24T07:25:48.741Z,24.48
2023-03-24T07:28:15.464Z,25.40
2023-03-24T07:30:42.320Z,28.83
2023-03-24T07:33:12.810Z,26.58
2023-03-24T07:35:40.272Z,30.23
2023-03-24T07:38:07.131Z,21.88
2023-03-24T07:40:35.477Z,24.38
2023-03-24T07:43:05.781Z,29.15
2023-03-24T07:45:33.768Z,26.48
2023-03-24T07:48:03.533Z,21.33
2023-03-24T07:50:31.443Z,26.83
2023-03-24T07:53:00.004Z,21.45
2023-03-24T07:55:27.460Z,33.90
2023-03-24T07:57:54.550Z,17.55
2023-03-24T08:00:22.479Z,23.02
2023-03-24T08:02:52.182Z,28.27
2023-03-24T08:05:20.644Z,23.10
2023-03-24T08:07:53.463Z,18.40
2023-03-24T08:10:25.961Z,17.33
2023-03-24T08:12:53.068Z,23.40
2023-03-24T08:15:20.436Z,23.63
2023-03-24T08:17:49.028Z,23.90
2023-03-24T08:20:16.182Z,18.25
2023-03-24T08:22:45.649Z,23.92
2023-03-24T08:25:13.240Z,24.77
2023-03-24T08:27:40.741Z,14.15
2023-03-24T08:30:10.541Z,17.13
2023-03-24T08:32:37.840Z,18.52
2023-03-24T08:35:05.143Z,17.88
2023-03-24T08:37:32.134Z,20.50
2023-03-24T08:40:04.117Z,17.65
2023-03-24T08:42:31.050Z,17.83
2023-03-24T08:44:57.747Z,22.40
2023-03-24T08:47:24.537Z,15.90
2023-03-24T08:49:57.630Z,18.77
2023-03-24T08:52:25.074Z,15.43
2023-03-24T08:54:52.591Z,18.25
2023-03-24T08:57:19.347Z,18.60
2023-03-24T08:59:46.761Z,17.45
2023-03-24T09:02:14.340Z,21.73
2023-03-24T09:04:42.925Z,21.73
2023-03-24T09:07:10.389Z,19.65
2023-03-24T09:09:37.427Z,21.40
2023-03-24T09:12:04.243Z,14.10
2023-03-24T09:14:31.223Z,22.73
2023-03-24T09:16:57.933Z,16.08
2023-03-24T09:19:24.942Z,20.45
2023-03-24T09:21:51.784Z,31.42
2023-03-24T09:24:18.557Z,22.92
2023-03-24T09:26:45.361Z,23.17
2023-03-24T09:29:12.150Z,18.15
2023-03-24T09:31:38.994Z,18.40
2023-03-24T09:34:05.805Z,22.55
2023-03-24T09:36:32.577Z,22.98
2023-03-24T09:38:59.311Z,22.77
2023-03-24T09:41:33.871Z,22.30
2023-03-24T09:44:07.504Z,23.38
2023-03-24T09:46:59.515Z,22.20
2023-03-24T09:49:33.706Z,22.48
2023-03-24T09:52:06.305Z,16.30
2023-03-24T09:54:55.751Z,20.77
2023-03-24T09:57:37.215Z,16.52
2023-03-24T10:00:18.293Z,17.52
2023-03-24T10:02:45.768Z,20.98
2023-03-24T10:05:22.612Z,19.73
2023-03-24T10:08:15.767Z,17.02
2023-03-24T10:10:55.891Z,17.92
2023-03-24T10:13:30.519Z,16.58
2023-03-24T10:16:22.451Z,16.15
2023-03-24T10:21:27.831Z,15.95
2023-03-24T10:23:59.514Z,15.38
2023-03-24T10:29:22.597Z,22.15
2023-03-24T10:31:58.137Z,23.77
2023-03-24T10:34:29.611Z,16.73
2023-03-24T10:36:59.020Z,17.35
2023-03-24T10:39:38.090Z,26.27
2023-03-24T10:42:18.573Z,21.35
2023-03-24T10:44:51.074Z,14.98
2023-03-24T10:47:24.380Z,21.88
2023-03-24T10:50:00.645Z,18.63
2023-03-24T10:52:28.420Z,19.30
2023-03-24T10:55:03.195Z,18.10
2023-03-24T10:57:30.768Z,22.13
2023-03-24T11:00:00.886Z,19.10
2023-03-24T11:02:31.629Z,17.17
2023-03-24T11:05:03.667Z,27.45
2023-03-24T11:07:37.129Z,13.20
2023-03-24T11:10:15.416Z,15.02
2023-03-24T11:12:51.580Z,11.18
2023-03-24T11:15:23.976Z,12.55
2023-03-24T11:18:20.161Z,16.63
2023-03-24T11:21:08.160Z,16.65
2023-03-24T11:23:38.066Z,12.55
2023-03-24T11:26:22.180Z,12.43
2023-03-24T11:28:55.758Z,13.40
2023-03-24T11:31:30.789Z,14.32
2023-03-24T11:34:20.736Z,15.32
2023-03-24T11:37:12.084Z,11.10
2023-03-24T11:39:38.812Z,8.10
2023-03-24T11:42:17.071Z,11.70
2023-03-24T11:44:51.361Z,12.15
2023-03-24T11:47:32.511Z,9.75
2023-03-24T11:50:05.663Z,12.35
2023-03-24T11:52:37.902Z,15.57
2023-03-24T11:55:18.176Z,16.65
2023-03-24T11:57:58.782Z,13.45
2023-03-24T12:00:29.489Z,19.50
2023-03-24T12:03:11.656Z,22.70
2023-03-24T12:05:44.727Z,18.50
2023-03-24T12:08:17.172Z,13.95
2023-03-24T12:10:49.800Z,22.15
2023-03-24T12:13:32.261Z,17.33
2023-03-24T12:16:20.869Z,18.23
2023-03-24T12:19:06.656Z,15.48
2023-03-24T12:22:01.570Z,19.13
2023-03-24T12:24:59.399Z,14.35
2023-03-24T12:27:35.017Z,22.08
2023-03-24T12:30:06.688Z,14.43
2023-03-24T12:35:24.911Z,13.93
2023-03-24T12:37:57.590Z,17.40
2023-03-24T12:41:04.914Z,15.52
2023-03-24T12:43:44.375Z,18.67
2023-03-24T12:46:46.762Z,17.23
2023-03-24T12:49:23.657Z,17.75
2023-03-24T12:52:15.260Z,19.85
2023-03-24T12:55:04.727Z,18.70
2023-03-24T12:57:45.200Z,13.65
2023-03-24T13:00:20.163Z,14.30
2023-03-24T13:02:52.327Z,16.00
2023-03-24T13:05:23.899Z,25.50
2023-03-24T13:07:57.418Z,13.65
2023-03-24T13:10:29.698Z,20.45
2023-03-24T13:13:16.683Z,7.22
2023-03-24T13:15:56.408Z,9.90
2023-03-24T13:18:43.789Z,7.85
2023-03-24T13:21:15.842Z,6.78
2023-03-24T13:23:54.852Z,12.65
2023-03-24T13:26:52.104Z,10.13
2023-03-24T13:29:48.521Z,13.70
2023-03-24T13:32:25.600Z,14.20
2023-03-24T13:34:52.278Z,11.77
2023-03-24T13:37:26.560Z,16.20
2023-03-24T13:39:58.805Z,12.27
2023-03-24T13:42:35.866Z,14.95
2023-03-24T13:45:06.253Z,13.45
2023-03-24T13:47:59.225Z,16.08
2023-03-24T13:50:26.117Z,16.90
2023-03-24T13:52:52.988Z,13.23
2023-03-24T13:55:27.927Z,10.77
2023-03-24T13:58:01.768Z,16.70
2023-03-24T14:00:28.989Z,11.80
2023-03-24T14:03:31.766Z,15.60
2023-03-24T14:06:05.128Z,15.23
2023-03-24T14:08:51.874Z,13.68
2023-03-24T14:11:41.520Z,10.48
2023-03-24T14:14:19.753Z,10.55
2023-03-24T14:16:52.187Z,8.38
2023-03-24T14:19:24.956Z,12.02
2023-03-24T14:21:53.379Z,16.65
2023-03-24T14:24:32.977Z,12.70
2023-03-24T14:26:59.833Z,16.85
2023-03-24T14:29:47.403Z,16.95
2023-03-24T14:32:20.709Z,18.05
2023-03-24T14:34:54.678Z,15.82
2023-03-24T14:37:22.935Z,14.73
2023-03-24T14:39:51.065Z,17.17
2023-03-24T14:42:36.224Z,16.70
2023-03-24T14:45:04.431Z,15.88
2023-03-24T14:47:38.346Z,16.90
2023-03-24T14:50:31.901Z,16.63
2023-03-24T14:53:02.161Z,14.80
2023-03-24T14:55:30.711Z,18.00
2023-03-24T14:58:18.790Z,14.30
2023-03-24T15:01:06.536Z,16.73
2023-03-24T15:04:05.710Z,17.20
2023-03-24T15:06:33.253Z,17.27
2023-03-24T15:09:05.421Z,17.45
2023-03-24T15:11:38.503Z,15.13
2023-03-24T15:14:06.363Z,14.35
2023-03-24T15:16:36.378Z,14.10
2023-03-24T15:19:26.020Z,11.88
2023-03-24T15:22:05.893Z,10.75
2023-03-24T15:24:36.166Z,14.38
2023-03-24T15:27:06.474Z,11.98
2023-03-24T15:29:39.011Z,14.50
2023-03-24T15:32:06.715Z,11.82
2023-03-24T15:34:40.881Z,15.68
2023-03-24T15:37:21.577Z,21.92
2023-03-24T15:40:01.885Z,17.98
2023-03-24T15:42:42.265Z,16.10
2023-03-24T15:45:23.076Z,16.67
2023-03-24T15:47:53.051Z,14.67
2023-03-24T15:50:39.254Z,17.65
2023-03-24T15:53:05.988Z,12.48
2023-03-24T15:55:37.020Z,17.17
2023-03-24T15:58:22.228Z,16.58
2023-03-24T16:00:53.153Z,16.85
2023-03-24T16:03:26.305Z,16.10
2023-03-24T16:05:55.982Z,18.98
2023-03-24T16:08:38.837Z,19.67
2023-03-24T16:11:12.171Z,20.52
2023-03-24T16:13:44.759Z,19.52
2023-03-24T16:16:14.348Z,19.27
2023-03-24T16:18:46.085Z,14.88
2023-03-24T16:23:46.994Z,14.50
2023-03-24T16:26:25.005Z,12.30
2023-03-24T16:28:52.930Z,11.20
2023-03-24T16:31:30.645Z,11.20
2023-03-24T16:33:58.239Z,14.57
2023-03-24T16:36:28.646Z,16.95
2023-03-24T16:39:00.465Z,11.18
2023-03-24T16:41:27.758Z,15.38
2023-03-24T16:43:55.065Z,12.70
2023-03-24T16:46:31.713Z,9.70
2023-03-24T16:48:59.597Z,13.82
2023-03-24T16:51:27.086Z,11.98
2023-03-24T16:53:53.809Z,13.60
2023-03-24T16:56:22.160Z,13.38
2023-03-24T16:58:50.763Z,14.20
2023-03-24T17:01:27.409Z,14.57
2023-03-24T17:04:12.056Z,9.10
2023-03-24T17:06:42.461Z,14.27
2023-03-24T17:09:10.105Z,10.10
2023-03-24T17:11:44.421Z,15.63
2023-03-24T17:14:14.637Z,9.98
2023-03-24T17:16:44.108Z,16.35
2023-03-24T17:19:12.854Z,16.27
2023-03-24T17:22:02.169Z,10.32
2023-03-24T17:24:32.727Z,13.98
2023-03-24T17:26:59.460Z,14.20
2023-03-24T17:29:26.266Z,10.15
2023-03-24T17:31:54.052Z,16.77
2023-03-24T17:34:22.145Z,11.80
2023-03-24T17:36:50.855Z,12.82
2023-03-24T17:39:19.421Z,14.05
2023-03-24T17:41:46.244Z,16.17
2023-03-24T17:44:13.155Z,16.58
2023-03-24T17:46:40.019Z,11.98
2023-03-24T17:49:06.812Z,13.48
2023-03-24T17:51:33.744Z,15.88
2023-03-24T17:54:00.714Z,12.95
2023-03-24T17:56:27.583Z,16.60
2023-03-24T17:58:59.092Z,14.50
2023-03-24T18:01:29.643Z,14.60
2023-03-24T18:03:57.887Z,12.57
2023-03-24T18:06:25.171Z,12.95
2023-03-24T18:08:52.343Z,15.98
2023-03-24T18:11:19.167Z,16.63
2023-03-24T18:13:46.511Z,12.05
2023-03-24T18:16:21.498Z,18.08
2023-03-24T18:18:50.602Z,15.25
2023-03-24T18:21:18.468Z,15.27
2023-03-24T18:23:46.740Z,16.38
2023-03-24T18:26:14.769Z,16.08
2023-03-24T18:28:42.768Z,19.75
2023-03-24T18:31:12.684Z,16.45
2023-03-24T18:33:42.686Z,16.98
2023-03-24T18:36:10.471Z,15.20
2023-03-24T18:38:37.425Z,15.40
2023-03-24T18:41:07.266Z,11.95
2023-03-24T18:43:37.629Z,22.23
2023-03-24T18:46:05.688Z,12.32
2023-03-24T18:48:32.622Z,20.17
2023-03-24T18:50:59.364Z,14.70
2023-03-24T18:53:26.149Z,15.98
2023-03-24T18:55:53.114Z,16.38
2023-03-24T18:58:20.034Z,15.10
2023-03-24T19:00:53.093Z,13.38
2023-03-24T19:03:24.672Z,13.85
2023-03-24T19:08:22.462Z,17.38
2023-03-24T19:10:49.743Z,17.17
2023-03-24T19:13:17.230Z,12.60
2023-03-24T19:15:48.608Z,15.57
2023-03-24T19:20:42.688Z,16.35
2023-03-24T19:23:09.713Z,14.38
2023-03-24T19:25:36.503Z,13.40
2023-03-24T19:28:03.340Z,15.93
2023-03-24T19:30:30.222Z,13.30
2023-03-24T19:32:57.121Z,13.57
2023-03-24T19:35:24.327Z,12.98
2023-03-24T19:37:51.088Z,17.50
2023-03-24T19:40:18.153Z,15.27
2023-03-24T19:42:45.265Z,11.50
2023-03-24T19:45:15.469Z,16.05
2023-03-24T19:47:43.568Z,14.50
2023-03-24T19:50:10.863Z,13.13
2023-03-24T19:52:37.695Z,20.60
2023-03-24T19:55:06.649Z,18.25
2023-03-24T19:57:33.723Z,10.52
2023-03-24T20:00:00.644Z,14.07
2023-03-24T20:02:28.349Z,13.55
2023-03-24T20:04:55.536Z,16.50
2023-03-24T20:07:23.173Z,16.33
2023-03-24T20:09:50.388Z,11.00
2023-03-24T20:12:17.207Z,13.07
2023-03-24T20:14:44.269Z,14.88
2023-03-24T20:17:19.899Z,16.38
2023-03-24T20:19:47.679Z,12.35
2023-03-24T20:22:15.680Z,12.25
2023-03-24T20:24:44.430Z,15.80
2023-03-24T20:27:11.693Z,12.23
2023-03-24T20:29:39.687Z,13.88
2023-03-24T20:32:10.007Z,13.40
2023-03-24T20:34:38.082Z,14.75
2023-03-24T20:37:06.113Z,10.20
2023-03-24T20:39:33.299Z,13.88
2023-03-24T20:42:00.264Z,15.25
2023-03-24T20:44:27.284Z,18.58
2023-03-24T20:46:56.957Z,14.60
2023-03-24T20:49:25.666Z,17.67
2023-03-24T20:51:53.285Z,21.13
2023-03-24T20:54:21.164Z,22.48
2023-03-24T20:56:49.807Z,20.92
2023-03-24T20:59:17.192Z,26.02
2023-03-24T21:01:43.979Z,17.00
2023-03-24T21:04:10.702Z,16.83
2023-03-24T21:06:38.182Z,19.30
2023-03-24T21:09:06.395Z,16.30
2023-03-24T21:11:33.809Z,16.33
2023-03-24T21:14:01.248Z,22.02
2023-03-24T21:16:28.628Z,22.67
2023-03-24T21:18:56.107Z,19.95
2023-03-24T21:21:22.872Z,15.43
2023-03-24T21:23:52.986Z,19.05
2023-03-24T21:26:19.822Z,17.45
2023-03-24T21:28:46.706Z,19.08
2023-03-24T21:31:19.533Z,20.73
2023-03-24T21:33:46.419Z,9.15
2023-03-24T21:36:13.620Z,17.98
2023-03-24T21:38:41.064Z,14.95
2023-03-24T21:41:08.196Z,16.75
2023-03-24T21:43:35.384Z,15.55
2023-03-24T21:46:03.904Z,14.70
2023-03-24T21:48:32.878Z,20.20
2023-03-24T21:51:00.253Z,18.55
2023-03-24T21:53:27.231Z,23.45
2023-03-24T21:56:04.847Z,15.40
2023-03-24T21:58:33.544Z,22.42
2023-03-24T22:01:00.514Z,20.75
2023-03-24T22:03:27.883Z,16.85
2023-03-24T22:05:57.258Z,15.43
2023-03-24T22:08:26.605Z,16.05
2023-03-24T22:11:01.268Z,17.13
2023-03-24T22:13:28.878Z,16.30
2023-03-24T22:15:57.851Z,17.65
2023-03-24T22:18:26.826Z,14.57
2023-03-24T22:21:03.318Z,14.50
2023-03-24T22:23:33.476Z,18.52
2023-03-24T22:26:05.205Z,17.98
2023-03-24T22:31:01.216Z,18.98
2023-03-24T22:33:28.598Z,17.10
2023-03-24T22:35:57.298Z,15.93
2023-03-24T22:38:25.196Z,14.15
2023-03-24T22:40:59.543Z,14.93
2023-03-24T22:43:27.447Z,16.02
2023-03-24T22:45:54.723Z,20.15
2023-03-24T22:48:21.537Z,16.75
2023-03-24T22:50:48.791Z,15.15
2023-03-24T22:53:16.167Z,18.10
2023-03-24T22:55:44.608Z,19.00
2023-03-24T22:58:13.380Z,19.90
2023-03-24T23:00:44.963Z,18.35
2023-03-24T23:03:12.104Z,18.80
2023-03-24T23:05:43.505Z,18.55
2023-03-24T23:08:11.742Z,17.92
2023-03-24T23:10:40.053Z,17.17
2023-03-24T23:13:07.024Z,16.52
2023-03-24T23:15:33.892Z,18.10
2023-03-24T23:18:00.648Z,22.15
2023-03-24T23:20:28.311Z,18.73
2023-03-24T23:22:55.865Z,19.08
2023-03-24T23:25:23.290Z,22.08
2023-03-24T23:27:50.109Z,26.80
2023-03-24T23:30:17.096Z,15.00
2023-03-24T23:32:44.234Z,19.75
2023-03-24T23:35:11.617Z,22.55
2023-03-24T23:37:39.548Z,22.33
2023-03-24T23:40:15.466Z,27.45
2023-03-24T23:42:46.184Z,21.33
2023-03-24T23:45:15.856Z,20.17
2023-03-24T23:47:44.644Z,19.10
2023-03-24T23:50:12.301Z,19.15
2023-03-24T23:52:43.943Z,24.35
2023-03-24T23:57:39.962Z,20.27
